Jim Hamilton L.B. Owens Airport


Codes: KCUB/CUB
Name: Jim Hamilton L.B. Owens Airport
City: Columbia
Country: United States
Elevation: 193 ft.
Website:
Wikipedia:

Photos at Jim Hamilton L.B. Owens Airport


   Photos courtesy of SpottingLog. You can add your own sightings and photos by signing up for a free trial today.



No photos found.

Weather at Jim Hamilton L.B. Owens Airport


Time (UTC)DescriptionTempratureWindCloud coverageVisibilityPressureHumidity
23-May-2024 21:00Broken Clouds31°C11 mph, S82%10000m1014hPa50%
24-May-2024 00:00Broken Clouds29°C7 mph, S80%10000m1014hPa59%
24-May-2024 03:00Light Rain21°C9 mph, N99%10000m1015hPa92%
24-May-2024 06:00Moderate Rain20°C4 mph, SE99%10000m1014hPa96%
24-May-2024 09:00Moderate Rain20°C4 mph, S100%10000m1012hPa98%
24-May-2024 12:00Light Rain22°C7 mph, SW93%10000m1013hPa93%
24-May-2024 15:00Broken Clouds28°C7 mph, W59%10000m1013hPa61%
24-May-2024 18:00Broken Clouds31°C9 mph, W52%10000m1011hPa47%
24-May-2024 21:00Overcast Clouds30°C9 mph, NW97%10000m1010hPa46%
25-May-2024 00:00Overcast Clouds26°C4 mph, NW90%10000m1011hPa59%
25-May-2024 03:00Light Rain22°C4 mph, W89%10000m1012hPa84%
25-May-2024 06:00Light Rain20°C4 mph, SW76%10000m1011hPa90%
25-May-2024 09:00Light Rain20°C4 mph, W47%10000m1011hPa95%
25-May-2024 12:00Scattered Clouds22°C7 mph, W26%10000m1012hPa87%
25-May-2024 15:00Clear Sky28°C7 mph, NW0%10000m1012hPa51%
25-May-2024 18:00Clear Sky32°C7 mph, NW0%10000m1011hPa38%
25-May-2024 21:00Broken Clouds33°C4 mph, W51%10000m1010hPa36%
26-May-2024 00:00Scattered Clouds29°C2 mph, SE44%10000m1010hPa49%
26-May-2024 03:00Broken Clouds26°C2 mph, NW56%10000m1012hPa58%
26-May-2024 06:00Broken Clouds24°C2 mph, S61%10000m1012hPa66%
26-May-2024 09:00Clear Sky23°C2 mph, W3%10000m1011hPa72%
26-May-2024 12:00Clear Sky25°C2 mph, W3%10000m1012hPa68%
26-May-2024 15:00Scattered Clouds31°C4 mph, SW25%10000m1013hPa49%
26-May-2024 18:00Scattered Clouds34°C9 mph, SW29%10000m1012hPa36%
26-May-2024 21:00Broken Clouds34°C9 mph, SW84%10000m1010hPa39%
27-May-2024 00:00Broken Clouds30°C9 mph, SW54%10000m1011hPa58%
27-May-2024 03:00Scattered Clouds27°C7 mph, S26%10000m1011hPa62%
27-May-2024 06:00Few Clouds25°C7 mph, SW14%10000m1011hPa70%
27-May-2024 09:00Broken Clouds24°C7 mph, SW68%10000m1011hPa75%
27-May-2024 12:00Light Rain23°C9 mph, W85%10000m1014hPa80%
27-May-2024 15:00Overcast Clouds28°C4 mph, SW100%10000m1014hPa60%
27-May-2024 18:00Overcast Clouds30°C7 mph, SW100%10000m1013hPa54%
27-May-2024 21:00Overcast Clouds32°C11 mph, SW98%10000m1010hPa41%
28-May-2024 00:00Light Rain29°C11 mph, SW65%10000m1011hPa54%
28-May-2024 03:00Moderate Rain21°C9 mph, NW100%10000m1012hPa87%
28-May-2024 06:00Light Rain21°C4 mph, S100%10000m1011hPa90%
28-May-2024 09:00Light Rain20°C7 mph, SW90%9533m1012hPa95%
28-May-2024 12:00Light Rain22°C4 mph, SW95%10000m1013hPa91%
28-May-2024 15:00Light Rain24°C4 mph, NW100%10000m1012hPa79%
28-May-2024 18:00Light Rain23°C4 mph, SW100%10000m1012hPa86%